createdAt,value
2022-09-24T00:04:56.603Z,101239.53
2022-09-24T00:10:18.341Z,101245.50
2022-09-24T00:15:43.631Z,101245.31
2022-09-24T00:21:14.589Z,101242.69
2022-09-24T00:26:51.489Z,101238.41
2022-09-24T00:32:13.076Z,101243.84
2022-09-24T00:37:35.300Z,101239.19
2022-09-24T00:42:57.136Z,101239.03
2022-09-24T00:48:19.127Z,101235.53
2022-09-24T00:53:42.126Z,101224.91
2022-09-24T00:59:05.784Z,101227.69
2022-09-24T01:04:27.960Z,101212.06
2022-09-24T01:09:50.316Z,101233.22
2022-09-24T01:15:18.029Z,101228.72
2022-09-24T01:21:07.095Z,101217.28
2022-09-24T01:26:58.653Z,101212.31
2022-09-24T01:32:28.912Z,101213.00
2022-09-24T01:37:56.419Z,101210.34
2022-09-24T01:43:21.963Z,101185.88
2022-09-24T01:48:44.515Z,101208.09
2022-09-24T01:54:11.188Z,101196.72
2022-09-24T01:59:36.501Z,101193.91
2022-09-24T02:05:03.558Z,101188.75
2022-09-24T02:10:28.833Z,101154.44
2022-09-24T02:15:52.272Z,101180.00
2022-09-24T02:21:16.213Z,101178.19
2022-09-24T02:26:38.087Z,101180.88
2022-09-24T02:32:00.167Z,101183.09
2022-09-24T02:37:23.770Z,101176.06
2022-09-24T02:42:45.435Z,101174.28
2022-09-24T02:48:07.235Z,101170.66
2022-09-24T02:53:29.619Z,101148.22
2022-09-24T02:58:51.282Z,101150.66
2022-09-24T03:04:13.447Z,101156.25
2022-09-24T03:09:38.264Z,101119.47
2022-09-24T03:14:59.909Z,101169.44
2022-09-24T03:20:22.104Z,101160.50
2022-09-24T03:25:44.381Z,101160.50
2022-09-24T03:31:07.228Z,101157.56
2022-09-24T03:36:28.960Z,101164.34
2022-09-24T03:41:51.308Z,101163.47
2022-09-24T03:47:12.928Z,101164.41
2022-09-24T03:52:34.530Z,101161.53
2022-09-24T03:57:56.813Z,101175.56
2022-09-24T04:03:18.560Z,101174.31
2022-09-24T04:08:40.262Z,101170.59
2022-09-24T04:14:02.594Z,101180.94
2022-09-24T04:19:26.090Z,101180.03
2022-09-24T04:24:47.743Z,101180.94
2022-09-24T04:30:12.254Z,101182.41
2022-09-24T04:35:35.579Z,101181.50
2022-09-24T04:41:04.478Z,101171.72
2022-09-24T04:46:26.793Z,101187.44
2022-09-24T04:51:48.470Z,101190.00
2022-09-24T04:57:10.231Z,101170.25
2022-09-24T05:02:32.771Z,101188.31
2022-09-24T05:07:56.019Z,101197.25
2022-09-24T05:13:17.638Z,101190.38
2022-09-24T05:18:40.419Z,101201.16
2022-09-24T05:24:02.457Z,101208.47
2022-09-24T05:29:24.380Z,101201.38
2022-09-24T05:34:47.272Z,101207.66
2022-09-24T05:40:33.049Z,101202.63
2022-09-24T05:45:56.381Z,101213.94
2022-09-24T05:51:18.659Z,101226.03
2022-09-24T05:56:40.248Z,101226.09
2022-09-24T06:02:01.955Z,101230.34
2022-09-24T06:07:24.252Z,101234.56
2022-09-24T06:12:46.243Z,101237.19
2022-09-24T06:18:08.134Z,101232.09
2022-09-24T06:23:30.678Z,101252.13
2022-09-24T06:28:52.313Z,101255.84
2022-09-24T06:34:14.863Z,101257.81
2022-09-24T06:39:37.334Z,101257.13
2022-09-24T06:44:59.180Z,101272.72
2022-09-24T06:50:22.140Z,101271.44
2022-09-24T06:55:46.876Z,101276.28
2022-09-24T07:01:09.026Z,101278.50
2022-09-24T07:06:51.173Z,101294.94
2022-09-24T07:12:13.816Z,101290.41
2022-09-24T07:17:35.897Z,101294.34
2022-09-24T07:22:57.750Z,101290.03
2022-09-24T07:28:20.912Z,101283.53
2022-09-24T07:33:42.987Z,101298.22
2022-09-24T07:39:04.822Z,101305.66
2022-09-24T07:44:28.383Z,101301.94
2022-09-24T07:49:50.233Z,101316.38
2022-09-24T07:55:12.068Z,101315.22
2022-09-24T08:00:34.865Z,101309.41
2022-09-24T08:05:59.082Z,101315.38
2022-09-24T08:11:21.066Z,101310.06
2022-09-24T08:16:43.572Z,101323.22
2022-09-24T08:22:07.456Z,101323.22
2022-09-24T08:27:30.566Z,101333.69
2022-09-24T08:32:53.109Z,101331.59
2022-09-24T08:38:15.289Z,101334.38
2022-09-24T08:43:44.064Z,101331.56
2022-09-24T08:49:10.194Z,101340.78
2022-09-24T08:54:34.252Z,101344.88
2022-09-24T08:59:56.109Z,101344.22
2022-09-24T09:05:26.913Z,101348.88
2022-09-24T09:10:49.072Z,101355.78
2022-09-24T09:16:19.227Z,101356.78
2022-09-24T09:21:43.830Z,101362.81
2022-09-24T09:27:10.904Z,101359.13
2022-09-24T09:32:40.173Z,101364.94
2022-09-24T09:38:08.844Z,101373.25
2022-09-24T09:43:30.757Z,101368.44
2022-09-24T09:48:56.597Z,101365.34
2022-09-24T09:54:19.168Z,101366.44
2022-09-24T09:59:41.144Z,101370.97
2022-09-24T10:05:05.301Z,101361.81
2022-09-24T10:10:29.018Z,101367.00
2022-09-24T10:15:52.443Z,101373.19
2022-09-24T10:21:30.995Z,101365.00
2022-09-24T10:26:54.977Z,101365.03
2022-09-24T10:32:18.250Z,101374.06
2022-09-24T10:37:50.347Z,101387.56
2022-09-24T10:43:18.705Z,101378.63
2022-09-24T10:48:44.298Z,101381.81
2022-09-24T10:54:17.845Z,101387.03
2022-09-24T10:59:53.026Z,101389.38
2022-09-24T11:05:18.691Z,101393.84
2022-09-24T11:10:52.587Z,101399.13
2022-09-24T11:16:49.929Z,101391.72
2022-09-24T11:22:14.307Z,101407.03
2022-09-24T11:27:51.616Z,101394.38
2022-09-24T11:33:25.558Z,101407.09
2022-09-24T11:39:03.448Z,101403.53
2022-09-24T11:45:04.353Z,101397.81
2022-09-24T11:50:33.547Z,101386.66
2022-09-24T11:55:57.874Z,101384.38
2022-09-24T12:01:22.272Z,101383.50
2022-09-24T12:06:51.762Z,101382.56
2022-09-24T12:12:17.740Z,101389.16
2022-09-24T12:17:42.344Z,101393.19
2022-09-24T12:23:10.973Z,101388.16
2022-09-24T12:28:57.074Z,101385.09
2022-09-24T12:34:23.384Z,101393.72
2022-09-24T12:39:50.098Z,101391.09
2022-09-24T12:45:15.594Z,101385.94
2022-09-24T12:50:38.296Z,101394.91
2022-09-24T12:56:01.664Z,101399.22
2022-09-24T13:01:31.742Z,101401.31
2022-09-24T13:06:53.632Z,101396.69
2022-09-24T13:12:21.142Z,101399.31
2022-09-24T13:17:44.154Z,101393.97
2022-09-24T13:23:28.767Z,101397.66
2022-09-24T13:28:55.852Z,101403.28
2022-09-24T13:34:20.027Z,101409.28
2022-09-24T13:39:44.047Z,101411.16
2022-09-24T13:45:11.314Z,101412.00
2022-09-24T13:50:38.925Z,101416.78
2022-09-24T13:56:03.770Z,101410.06
2022-09-24T14:01:29.243Z,101416.75
2022-09-24T14:06:52.734Z,101427.31
2022-09-24T14:12:16.141Z,101420.91
2022-09-24T14:17:38.633Z,101418.25
2022-09-24T14:23:01.198Z,101420.69
2022-09-24T14:28:23.408Z,101423.22
2022-09-24T14:33:46.365Z,101427.00
2022-09-24T14:39:10.770Z,101429.56
2022-09-24T14:44:32.924Z,101442.38
2022-09-24T14:49:55.976Z,101443.47
2022-09-24T14:55:19.658Z,101442.09
2022-09-24T15:00:47.173Z,101441.81
2022-09-24T15:06:20.143Z,101438.03
2022-09-24T15:11:43.798Z,101433.75
2022-09-24T15:17:10.242Z,101442.94
2022-09-24T15:22:32.781Z,101437.19
2022-09-24T15:27:54.664Z,101440.72
2022-09-24T15:33:17.655Z,101447.91
2022-09-24T15:38:40.203Z,101447.13
2022-09-24T15:44:02.117Z,101442.44
2022-09-24T15:49:24.208Z,101443.88
2022-09-24T15:54:46.714Z,101451.53
2022-09-24T16:00:16.112Z,101453.59
2022-09-24T16:05:38.893Z,101430.59
2022-09-24T16:11:04.799Z,101465.63
2022-09-24T16:16:30.112Z,101466.41
2022-09-24T16:21:52.051Z,101471.09
2022-09-24T16:27:14.850Z,101477.91
2022-09-24T16:32:36.693Z,101486.19
2022-09-24T16:37:58.492Z,101483.47
2022-09-24T16:43:21.004Z,101499.47
2022-09-24T16:48:43.711Z,101500.66
2022-09-24T16:54:05.734Z,101497.38
2022-09-24T16:59:28.260Z,101499.63
2022-09-24T17:04:52.843Z,101516.28
2022-09-24T17:10:15.320Z,101527.38
2022-09-24T17:15:37.840Z,101526.91
2022-09-24T17:21:00.593Z,101530.00
2022-09-24T17:26:22.911Z,101523.03
2022-09-24T17:31:45.737Z,101544.09
2022-09-24T17:37:07.651Z,101540.56
2022-09-24T17:42:30.988Z,101550.63
2022-09-24T17:47:56.107Z,101551.25
2022-09-24T17:53:20.502Z,101555.94
2022-09-24T17:58:43.800Z,101552.19
2022-09-24T18:04:09.079Z,101566.84
2022-09-24T18:09:30.890Z,101568.53
2022-09-24T18:14:52.758Z,101577.25
2022-09-24T18:20:15.388Z,101575.66
2022-09-24T18:25:37.301Z,101580.56
2022-09-24T18:31:02.666Z,101595.47
2022-09-24T18:36:25.443Z,101593.44
2022-09-24T18:41:47.134Z,101601.94
2022-09-24T18:47:13.824Z,101603.22
2022-09-24T18:52:36.123Z,101614.78
2022-09-24T18:57:57.756Z,101613.44
2022-09-24T19:03:19.900Z,101618.06
2022-09-24T19:08:42.203Z,101616.06
2022-09-24T19:14:03.893Z,101621.94
2022-09-24T19:19:26.897Z,101613.47
2022-09-24T19:24:49.299Z,101632.06
2022-09-24T19:30:11.747Z,101636.34
2022-09-24T19:35:34.414Z,101635.59
2022-09-24T19:40:58.385Z,101641.91
2022-09-24T19:46:23.429Z,101640.16
2022-09-24T19:51:45.061Z,101641.09
2022-09-24T19:57:07.393Z,101639.63
2022-09-24T20:02:29.614Z,101637.09
2022-09-24T20:07:51.324Z,101644.25
2022-09-24T20:13:13.571Z,101637.41
2022-09-24T20:18:35.499Z,101645.41
2022-09-24T20:23:57.893Z,101650.81
2022-09-24T20:29:22.041Z,101646.53
2022-09-24T20:34:43.718Z,101653.81
2022-09-24T20:40:06.390Z,101654.69
2022-09-24T20:45:28.864Z,101653.97
2022-09-24T20:50:50.517Z,101664.47
2022-09-24T20:56:12.950Z,101654.03
2022-09-24T21:01:35.505Z,101658.44
2022-09-24T21:06:57.260Z,101654.13
2022-09-24T21:12:19.028Z,101664.72
2022-09-24T21:17:54.770Z,101651.06
2022-09-24T21:23:25.806Z,101666.75
2022-09-24T21:28:49.315Z,101663.25
2022-09-24T21:34:12.564Z,101666.16
2022-09-24T21:39:35.158Z,101662.91
2022-09-24T21:44:57.083Z,101670.78
2022-09-24T21:50:19.467Z,101653.44
2022-09-24T21:55:41.454Z,101665.50
2022-09-24T22:01:06.905Z,101668.22
2022-09-24T22:06:30.663Z,101666.53
2022-09-24T22:11:52.609Z,101672.81
2022-09-24T22:17:14.415Z,101673.72
2022-09-24T22:22:36.752Z,101671.25
2022-09-24T22:27:58.356Z,101671.22
2022-09-24T22:33:38.299Z,101666.84
2022-09-24T22:39:00.978Z,101663.31
2022-09-24T22:44:22.641Z,101640.81
2022-09-24T22:49:44.211Z,101666.09
2022-09-24T22:55:07.568Z,101668.78
2022-09-24T23:00:29.170Z,101667.06
2022-09-24T23:05:50.766Z,101637.63
2022-09-24T23:11:15.168Z,101665.41
2022-09-24T23:16:37.306Z,101663.78
2022-09-24T23:21:58.922Z,101667.53
2022-09-24T23:27:21.640Z,101671.13
2022-09-24T23:32:43.254Z,101671.22
2022-09-24T23:38:05.354Z,101663.47
2022-09-24T23:43:27.855Z,101671.41
2022-09-24T23:48:49.530Z,101629.13
2022-09-24T23:54:11.240Z,101664.53
2022-09-24T23:59:33.850Z,101668.16
